Weather at Chengdu Shuangliu International Airport

Public forecast

Using degrees Celsius for public forecast. Weather courtesy of forecast.io.

Current aviation weather report (METAR) for Chengdu Shuangliu International Airport

Retrieved 2020/11/28 21:00 UTC (46 minutes ago):

ZUUU 282100Z 00000MPS 8000 NSC 03/03 Q1027 NOSIG

Aviation forecast (TAF) for Chengdu Shuangliu International Airport

Retrieved 2020/11/28 18:03 UTC (4 hours ago):

TAF ZUUU 281501Z 2818/2918 18003MPS 5000 BR SCT050 TX11/2907Z TN05/2823Z BECMG 2822/2823 1000 BECMG 2901/2902 3000